createdAt,value
2019-05-15T00:01:40.960Z,91542.36
2019-05-15T00:04:09.784Z,91554.95
2019-05-15T00:06:39.207Z,91557.88
2019-05-15T00:09:08.775Z,91565.87
2019-05-15T00:11:39.010Z,91565.17
2019-05-15T00:14:08.768Z,91575.33
2019-05-15T00:16:38.664Z,91575.63
2019-05-15T00:19:08.782Z,91573.05
2019-05-15T00:21:38.459Z,91573.90
2019-05-15T00:24:12.708Z,91564.63
2019-05-15T00:26:38.777Z,91561.80
2019-05-15T00:29:15.640Z,91558.87
2019-05-15T00:31:38.992Z,91551.55
2019-05-15T00:34:12.679Z,91561.87
2019-05-15T00:36:39.214Z,91564.31
2019-05-15T00:39:08.642Z,91561.16
2019-05-15T00:41:50.874Z,91561.87
2019-05-15T00:44:09.300Z,91559.33
2019-05-15T00:46:39.360Z,91562.70
2019-05-15T00:49:08.816Z,91557.46
2019-05-15T00:51:38.997Z,91556.82
2019-05-15T00:54:08.699Z,91551.19
2019-05-15T00:56:39.134Z,91548.67
2019-05-15T00:59:08.533Z,91554.95
2019-05-15T01:01:38.326Z,91560.34
2019-05-15T01:04:08.164Z,91559.41
2019-05-15T01:06:39.051Z,91561.00
2019-05-15T01:09:08.532Z,91547.20
2019-05-15T01:11:38.278Z,91541.33
2019-05-15T01:14:11.896Z,91537.56
2019-05-15T01:16:41.031Z,91529.20
2019-05-15T01:19:10.354Z,91521.68
2019-05-15T01:21:39.592Z,91528.80
2019-05-15T01:24:08.833Z,91534.50
2019-05-15T01:26:38.537Z,91534.16
2019-05-15T01:29:09.041Z,91532.14
2019-05-15T01:31:38.444Z,91524.22
2019-05-15T01:34:09.030Z,91527.95
2019-05-15T01:36:38.447Z,91531.89
2019-05-15T01:39:08.066Z,91531.05
2019-05-15T01:41:38.641Z,91525.87
2019-05-15T01:44:08.799Z,91528.14
2019-05-15T01:46:39.340Z,91530.95
2019-05-15T01:49:08.788Z,91533.55
2019-05-15T01:51:38.478Z,91533.05
2019-05-15T01:54:09.167Z,91538.95
2019-05-15T01:56:38.900Z,91529.47
2019-05-15T01:59:08.659Z,91527.89
2019-05-15T02:01:39.168Z,91520.23
2019-05-15T02:04:08.814Z,91513.84
2019-05-15T02:06:39.061Z,91520.09
2019-05-15T02:09:08.719Z,91520.73
2019-05-15T02:11:38.343Z,91517.39
2019-05-15T02:14:08.354Z,91515.98
2019-05-15T02:16:39.292Z,91516.72
2019-05-15T02:19:09.063Z,91514.15
2019-05-15T02:21:38.468Z,91515.34
2019-05-15T02:24:08.016Z,91510.77
2019-05-15T02:26:38.813Z,91516.28
2019-05-15T02:29:13.208Z,91514.20
2019-05-15T02:31:39.594Z,91508.52
2019-05-15T02:34:10.079Z,91501.86
2019-05-15T02:36:40.266Z,91502.89
2019-05-15T02:39:09.913Z,91510.84
2019-05-15T02:41:39.939Z,91513.86
2019-05-15T02:44:10.915Z,91512.67
2019-05-15T02:46:40.172Z,91510.23
2019-05-15T02:49:09.485Z,91509.34
2019-05-15T02:51:39.913Z,91509.98
2019-05-15T02:54:10.411Z,91511.64
2019-05-15T02:56:40.678Z,91501.60
2019-05-15T02:59:09.912Z,91501.06
2019-05-15T03:01:40.548Z,91503.58
2019-05-15T03:04:10.120Z,91502.12
2019-05-15T03:06:39.371Z,91499.59
2019-05-15T03:09:09.466Z,91504.73
2019-05-15T03:11:40.914Z,91504.11
2019-05-15T03:14:10.231Z,91504.54
2019-05-15T03:16:39.787Z,91499.00
2019-05-15T03:19:09.982Z,91504.96
2019-05-15T03:21:39.568Z,91506.86
2019-05-15T03:24:10.115Z,91511.50
2019-05-15T03:26:39.827Z,91507.03
2019-05-15T03:29:09.732Z,91506.98
2019-05-15T03:31:57.662Z,91512.68
2019-05-15T03:34:20.822Z,91511.42
2019-05-15T03:36:45.052Z,91521.44
2019-05-15T03:39:12.258Z,91516.77
2019-05-15T03:41:41.527Z,91514.12
2019-05-15T03:44:10.762Z,91515.31
2019-05-15T03:46:40.164Z,91517.27
2019-05-15T03:49:09.576Z,91523.72
2019-05-15T03:51:41.008Z,91526.89
2019-05-15T03:54:09.674Z,91524.38
2019-05-15T03:56:39.602Z,91536.04
2019-05-15T03:59:09.592Z,91539.82
2019-05-15T04:01:43.678Z,91542.24
2019-05-15T04:04:10.041Z,91534.38
2019-05-15T04:06:39.415Z,91542.17
2019-05-15T04:09:09.653Z,91544.73
2019-05-15T04:11:39.272Z,91537.59
2019-05-15T04:14:10.153Z,91545.48
2019-05-15T04:16:39.570Z,91551.13
2019-05-15T04:19:09.889Z,91545.16
2019-05-15T04:21:44.085Z,91541.16
2019-05-15T04:24:10.392Z,91533.14
2019-05-15T04:26:41.529Z,91541.75
2019-05-15T04:29:11.059Z,91542.16
2019-05-15T04:31:51.683Z,91540.83
2019-05-15T04:34:11.249Z,91535.20
2019-05-15T04:36:44.312Z,91535.84
2019-05-15T04:39:11.363Z,91531.59
2019-05-15T04:41:40.635Z,91531.51
2019-05-15T04:44:12.555Z,91530.22
2019-05-15T04:46:41.851Z,91533.17
2019-05-15T04:49:11.061Z,91530.41
2019-05-15T04:51:40.476Z,91528.13
2019-05-15T04:54:09.969Z,91531.77
2019-05-15T04:56:40.043Z,91530.30
2019-05-15T04:59:10.397Z,91526.20
2019-05-15T05:01:40.424Z,91530.00
2019-05-15T05:04:10.236Z,91541.50
2019-05-15T05:06:39.534Z,91543.03
2019-05-15T05:09:09.362Z,91535.67
2019-05-15T05:11:38.950Z,91547.05
2019-05-15T05:14:08.634Z,91547.10
2019-05-15T05:16:39.216Z,91546.34
2019-05-15T05:19:09.185Z,91552.78
2019-05-15T05:21:38.669Z,91552.85
2019-05-15T05:24:08.370Z,91549.80
2019-05-15T05:26:38.257Z,91556.37
2019-05-15T05:29:08.468Z,91556.05
2019-05-15T05:31:39.171Z,91561.28
2019-05-15T05:34:08.753Z,91558.36
2019-05-15T05:36:38.628Z,91551.47
2019-05-15T05:39:09.620Z,91555.84
2019-05-15T05:41:39.351Z,91565.42
2019-05-15T05:44:08.595Z,91560.88
2019-05-15T05:46:39.799Z,91564.27
2019-05-15T05:49:09.332Z,91570.31
2019-05-15T05:51:38.807Z,91573.08
2019-05-15T05:54:08.502Z,91568.94
2019-05-15T05:56:38.089Z,91566.35
2019-05-15T05:59:09.415Z,91554.62
2019-05-15T06:01:43.732Z,91556.94
2019-05-15T06:04:09.148Z,91557.52
2019-05-15T06:06:38.576Z,91560.92
2019-05-15T06:09:09.205Z,91568.05
2019-05-15T06:11:38.773Z,91562.33
2019-05-15T06:14:08.777Z,91569.22
2019-05-15T06:16:38.895Z,91576.00
2019-05-15T06:19:08.384Z,91570.10
2019-05-15T06:21:46.567Z,91573.20
2019-05-15T06:24:13.245Z,91573.61
2019-05-15T06:26:39.791Z,91575.59
2019-05-15T06:29:09.055Z,91566.13
2019-05-15T06:31:38.811Z,91565.97
2019-05-15T06:34:08.418Z,91567.80
2019-05-15T06:36:39.293Z,91571.14
2019-05-15T06:39:08.650Z,91564.88
2019-05-15T06:41:39.017Z,91562.64
2019-05-15T06:44:08.454Z,91561.88
2019-05-15T06:46:39.331Z,91561.25
2019-05-15T06:49:08.741Z,91560.53
2019-05-15T06:51:38.047Z,91562.31
2019-05-15T06:54:08.729Z,91556.10
2019-05-15T06:56:38.853Z,91559.45
2019-05-15T06:59:08.922Z,91554.05
2019-05-15T07:01:38.638Z,91552.74
2019-05-15T07:04:08.492Z,91554.45
2019-05-15T07:06:38.212Z,91556.21
2019-05-15T07:09:09.456Z,91552.69
2019-05-15T07:11:38.968Z,91552.14
2019-05-15T07:14:08.874Z,91554.59
2019-05-15T07:16:41.556Z,91560.85
2019-05-15T07:19:10.791Z,91550.30
2019-05-15T07:21:40.033Z,91545.13
2019-05-15T07:24:09.440Z,91552.84
2019-05-15T07:26:39.158Z,91546.73
2019-05-15T07:29:08.610Z,91540.87
2019-05-15T07:31:38.419Z,91530.55
2019-05-15T07:34:08.382Z,91537.17
2019-05-15T07:36:39.064Z,91539.97
2019-05-15T07:39:09.139Z,91543.39
2019-05-15T07:41:39.139Z,91538.91
2019-05-15T07:44:08.729Z,91539.49
2019-05-15T07:46:38.378Z,91539.84
2019-05-15T07:49:09.041Z,91533.91
2019-05-15T07:51:38.531Z,91538.51
2019-05-15T07:54:09.109Z,91543.46
2019-05-15T07:56:38.630Z,91535.28
2019-05-15T07:59:08.263Z,91530.80
2019-05-15T08:01:38.592Z,91528.27
2019-05-15T08:04:22.802Z,91518.50
2019-05-15T08:06:39.057Z,91517.87
2019-05-15T08:09:08.626Z,91514.15
2019-05-15T08:11:39.082Z,91507.52
2019-05-15T08:14:09.067Z,91517.55
2019-05-15T08:16:39.563Z,91515.06
2019-05-15T08:19:09.235Z,91508.33
2019-05-15T08:21:38.757Z,91508.95
2019-05-15T08:24:08.596Z,91499.48
2019-05-15T08:26:39.990Z,91499.58
2019-05-15T08:29:08.938Z,91496.48
2019-05-15T08:31:38.882Z,91504.56
2019-05-15T08:34:15.169Z,91493.88
2019-05-15T08:36:39.465Z,91497.16
2019-05-15T08:39:08.783Z,91490.60
2019-05-15T08:41:39.127Z,91490.98
2019-05-15T08:44:08.832Z,91488.48
2019-05-15T08:46:38.794Z,91495.05
2019-05-15T08:49:09.135Z,91506.56
2019-05-15T08:51:38.640Z,91507.23
2019-05-15T08:54:08.537Z,91506.40
2019-05-15T08:56:39.407Z,91505.38
2019-05-15T08:59:09.021Z,91504.59
2019-05-15T09:01:38.461Z,91498.09
2019-05-15T09:04:09.001Z,91490.62
2019-05-15T09:06:41.290Z,91487.81
2019-05-15T09:09:09.779Z,91493.27
2019-05-15T09:11:39.545Z,91485.13
2019-05-15T09:14:09.122Z,91477.52
2019-05-15T09:16:38.872Z,91482.38
2019-05-15T09:19:08.497Z,91483.02
2019-05-15T09:21:38.763Z,91473.66
2019-05-15T09:24:09.344Z,91483.65
2019-05-15T09:26:40.336Z,91474.39
2019-05-15T09:29:09.716Z,91481.80
2019-05-15T09:31:39.299Z,91491.44
2019-05-15T09:34:09.227Z,91485.67
2019-05-15T09:36:42.355Z,91478.57
2019-05-15T09:39:13.137Z,91476.66
2019-05-15T09:41:40.489Z,91475.82
2019-05-15T09:44:09.722Z,91473.09
2019-05-15T09:46:38.998Z,91469.23
2019-05-15T09:49:08.804Z,91465.45
2019-05-15T09:51:38.622Z,91462.71
2019-05-15T09:54:08.310Z,91469.70
2019-05-15T09:56:38.494Z,91474.00
2019-05-15T09:59:08.826Z,91472.66
2019-05-15T10:01:39.499Z,91464.36
2019-05-15T10:04:09.329Z,91466.73
2019-05-15T10:06:58.620Z,91467.81
2019-05-15T10:09:28.441Z,91467.22
2019-05-15T10:11:58.082Z,91459.66
2019-05-15T10:14:29.812Z,91463.36
2019-05-15T10:16:59.271Z,91458.84
2019-05-15T10:19:29.047Z,91459.08
2019-05-15T10:21:59.573Z,91450.72
2019-05-15T10:24:28.980Z,91447.95
2019-05-15T10:26:58.221Z,91441.94
2019-05-15T10:29:28.117Z,91437.73
2019-05-15T10:31:57.754Z,91433.15
2019-05-15T10:34:28.903Z,91436.92
2019-05-15T10:36:58.939Z,91431.60
2019-05-15T10:39:28.870Z,91431.98
2019-05-15T10:41:58.317Z,91428.72
2019-05-15T10:44:28.545Z,91422.77
2019-05-15T10:46:58.569Z,91429.41
2019-05-15T10:49:28.391Z,91430.24
2019-05-15T10:51:57.674Z,91421.11
2019-05-15T10:54:29.147Z,91413.27
2019-05-15T10:57:00.502Z,91428.53
2019-05-15T10:59:28.702Z,91422.18
2019-05-15T11:01:59.119Z,91423.74
2019-05-15T11:04:28.910Z,91422.42
2019-05-15T11:06:58.433Z,91415.33
2019-05-15T11:09:28.700Z,91422.33
2019-05-15T11:11:58.457Z,91426.91
2019-05-15T11:14:28.650Z,91428.42
2019-05-15T11:16:58.941Z,91414.98
2019-05-15T11:19:35.594Z,91405.85
2019-05-15T11:21:59.595Z,91406.70
2019-05-15T11:24:32.227Z,91409.44
2019-05-15T11:26:59.668Z,91405.13
2019-05-15T11:29:29.117Z,91397.05
2019-05-15T11:31:58.352Z,91414.24
2019-05-15T11:34:29.035Z,91408.20
2019-05-15T11:36:59.320Z,91406.86
2019-05-15T11:39:29.007Z,91403.37
2019-05-15T11:41:58.456Z,91421.16
2019-05-15T11:44:28.303Z,91418.59
2019-05-15T11:46:58.630Z,91423.80
2019-05-15T11:49:28.994Z,91413.13
2019-05-15T11:52:00.518Z,91403.44
2019-05-15T11:54:29.388Z,91386.82
2019-05-15T11:56:59.674Z,91390.13
2019-05-15T11:59:30.052Z,91402.12
2019-05-15T12:01:59.589Z,91409.70
2019-05-15T12:04:33.794Z,91416.90
2019-05-15T12:07:02.648Z,91441.14
2019-05-15T12:09:30.676Z,91446.81
2019-05-15T12:11:59.907Z,91448.80
2019-05-15T12:14:29.776Z,91444.41
2019-05-15T12:17:06.902Z,91486.34
2019-05-15T12:19:29.992Z,91501.92
2019-05-15T12:21:59.974Z,91521.30
2019-05-15T12:24:35.227Z,91522.14
2019-05-15T12:27:13.659Z,91522.09
2019-05-15T12:29:31.553Z,91520.24
2019-05-15T12:32:20.114Z,91509.42
2019-05-15T12:34:31.630Z,91496.50
2019-05-15T12:37:01.300Z,91504.09
2019-05-15T12:39:30.675Z,91507.83
2019-05-15T13:02:05.371Z,91577.77
2019-05-15T13:04:34.594Z,91589.27
2019-05-15T13:07:12.835Z,91622.80
2019-05-15T13:09:34.783Z,91628.11
2019-05-15T13:12:04.013Z,91637.80
2019-05-15T13:14:33.284Z,91636.89
2019-05-15T13:17:02.515Z,91628.09
2019-05-15T13:19:31.757Z,91626.12
2019-05-15T13:22:01.039Z,91633.81
2019-05-15T13:24:30.272Z,91654.45
2019-05-15T13:26:59.525Z,91610.91
2019-05-15T13:29:29.131Z,91597.04
2019-05-15T13:31:58.611Z,91642.34
2019-05-15T13:34:30.716Z,91600.27
2019-05-15T13:36:59.241Z,91522.37
2019-05-15T13:39:28.965Z,91451.28
2019-05-15T13:41:58.541Z,91501.31
2019-05-15T13:44:29.359Z,91536.53
2019-05-15T13:46:58.950Z,91552.22
2019-05-15T13:49:28.293Z,91548.44
2019-05-15T13:51:59.339Z,91545.21
2019-05-15T13:54:28.771Z,91537.59
2019-05-15T13:56:58.346Z,91539.25
2019-05-15T13:59:28.654Z,91544.85
2019-05-15T14:01:59.462Z,91542.31
2019-05-15T14:04:29.872Z,91541.63
2019-05-15T14:07:01.060Z,91531.35
2019-05-15T14:09:34.105Z,91537.95
2019-05-15T14:12:04.524Z,91535.03
2019-05-15T14:14:34.143Z,91546.64
2019-05-15T14:17:04.069Z,91556.05
2019-05-15T14:19:35.167Z,91546.92
2019-05-15T14:22:23.159Z,91550.90
2019-05-15T14:24:53.732Z,91538.73
2019-05-15T14:27:24.448Z,91544.48
2019-05-15T14:29:54.741Z,91543.03
2019-05-15T14:32:35.411Z,91546.31
2019-05-15T14:35:02.745Z,91552.83
2019-05-15T14:37:44.659Z,91548.58
2019-05-15T14:40:17.764Z,91561.34
2019-05-15T14:42:52.515Z,91559.71
2019-05-15T14:45:27.672Z,91582.47
2019-05-15T14:47:58.174Z,91580.02
2019-05-15T14:50:28.371Z,91573.16
2019-05-15T14:52:58.548Z,91566.62
2019-05-15T14:55:33.770Z,91568.72
2019-05-15T14:57:59.202Z,91568.34
2019-05-15T15:00:34.401Z,91570.31
2019-05-15T15:02:59.840Z,91561.89
2019-05-15T15:05:29.597Z,91569.02
2019-05-15T15:07:58.836Z,91562.87
2019-05-15T15:10:29.304Z,91555.14
2019-05-15T15:12:58.820Z,91566.20
2019-05-15T15:15:28.722Z,91558.28
2019-05-15T15:17:58.411Z,91553.16
2019-05-15T15:20:28.582Z,91555.95
2019-05-15T15:22:58.794Z,91564.50
2019-05-15T15:25:31.102Z,91560.96
2019-05-15T15:28:00.348Z,91560.76
2019-05-15T15:30:30.028Z,91573.49
2019-05-15T15:32:59.752Z,91566.23
2019-05-15T15:35:29.006Z,91553.90
2019-05-15T15:37:58.241Z,91561.78
2019-05-15T15:40:28.262Z,91564.20
2019-05-15T15:42:58.127Z,91556.25
2019-05-15T15:45:28.351Z,91557.30
2019-05-15T15:47:58.740Z,91550.42
2019-05-15T15:50:28.834Z,91556.80
2019-05-15T15:52:59.369Z,91557.30
2019-05-15T15:55:29.193Z,91560.91
2019-05-15T15:57:59.309Z,91549.02
2019-05-15T16:00:28.942Z,91553.16
2019-05-15T16:02:58.660Z,91550.10
2019-05-15T16:05:29.103Z,91542.78
2019-05-15T16:07:59.174Z,91537.05
2019-05-15T16:10:28.851Z,91551.55
2019-05-15T16:12:58.338Z,91547.08
2019-05-15T16:15:29.036Z,91551.47
2019-05-15T16:17:59.443Z,91553.07
2019-05-15T16:20:28.887Z,91550.97
2019-05-15T16:22:59.179Z,91552.92
2019-05-15T16:25:28.961Z,91550.03
2019-05-15T16:27:58.607Z,91552.80
2019-05-15T16:30:28.283Z,91546.89
2019-05-15T16:32:58.511Z,91545.76
2019-05-15T16:35:28.998Z,91543.81
2019-05-15T16:37:58.538Z,91538.69
2019-05-15T16:40:28.756Z,91531.21
2019-05-15T16:42:58.287Z,91532.30
2019-05-15T16:45:28.877Z,91529.62
2019-05-15T16:47:58.734Z,91534.86
2019-05-15T16:50:28.633Z,91532.67
2019-05-15T16:52:58.523Z,91536.80
2019-05-15T16:55:28.590Z,91535.41
2019-05-15T16:57:58.635Z,91545.59
2019-05-15T17:00:29.251Z,91542.30
2019-05-15T17:03:09.296Z,91536.86
2019-05-15T17:05:29.605Z,91540.67
2019-05-15T17:07:58.879Z,91549.97
2019-05-15T17:10:28.316Z,91544.27
2019-05-15T17:12:58.281Z,91546.47
2019-05-15T17:15:28.168Z,91557.25
2019-05-15T17:17:58.305Z,91560.06
2019-05-15T17:20:31.398Z,91564.36
2019-05-15T17:23:00.671Z,91575.80
2019-05-15T17:25:29.912Z,91575.48
2019-05-15T17:27:59.161Z,91573.53
2019-05-15T17:30:28.849Z,91578.47
2019-05-15T17:32:58.095Z,91582.33
2019-05-15T17:35:27.819Z,91577.09
2019-05-15T17:37:58.142Z,91574.78
2019-05-15T17:40:28.421Z,91571.23
2019-05-15T17:42:58.597Z,91573.59
2019-05-15T17:45:28.947Z,91586.80
2019-05-15T17:47:58.559Z,91592.52
2019-05-15T17:50:28.410Z,91600.76
2019-05-15T17:52:58.632Z,91598.06
2019-05-15T17:55:28.237Z,91600.52
2019-05-15T17:58:00.786Z,91602.55
2019-05-15T18:00:28.708Z,91606.13
2019-05-15T18:02:58.036Z,91610.63
2019-05-15T18:05:28.256Z,91617.59
2019-05-15T18:07:58.394Z,91613.39
2019-05-15T18:10:28.160Z,91611.81
2019-05-15T18:12:58.608Z,91617.92
2019-05-15T18:15:28.056Z,91625.17
2019-05-15T18:17:59.400Z,91625.33
2019-05-15T18:20:29.603Z,91641.50
2019-05-15T18:22:59.441Z,91640.58
2019-05-15T18:25:29.017Z,91639.44
2019-05-15T18:27:59.226Z,91638.36
2019-05-15T18:30:28.753Z,91640.88
2019-05-15T18:32:58.935Z,91635.28
2019-05-15T18:35:29.536Z,91633.48
2019-05-15T18:37:59.344Z,91630.61
2019-05-15T18:40:28.581Z,91639.70
2019-05-15T18:42:59.196Z,91646.28
2019-05-15T18:45:29.219Z,91646.81
2019-05-15T18:47:58.986Z,91651.27
2019-05-15T18:50:28.628Z,91655.55
2019-05-15T18:52:58.584Z,91656.02
2019-05-15T18:55:28.081Z,91663.61
2019-05-15T18:57:58.390Z,91655.14
2019-05-15T19:00:29.515Z,91657.68
2019-05-15T19:02:59.446Z,91661.98
2019-05-15T19:05:29.996Z,91656.55
2019-05-15T19:07:59.313Z,91661.30
2019-05-15T19:10:28.642Z,91659.12
2019-05-15T19:12:58.329Z,91652.47
2019-05-15T19:15:28.798Z,91646.68
2019-05-15T19:17:59.012Z,91651.91
2019-05-15T19:20:28.332Z,91658.22
2019-05-15T19:22:58.889Z,91661.39
2019-05-15T19:25:28.770Z,91665.61
2019-05-15T19:27:58.171Z,91665.02
2019-05-15T19:30:28.671Z,91662.20
2019-05-15T19:32:58.669Z,91661.73
2019-05-15T19:35:28.298Z,91666.42
2019-05-15T19:37:58.471Z,91673.23
2019-05-15T19:40:28.664Z,91675.41
2019-05-15T19:42:59.137Z,91670.44
2019-05-15T19:45:28.954Z,91673.96
2019-05-15T19:47:58.901Z,91676.84
2019-05-15T19:50:29.024Z,91673.84
2019-05-15T19:52:59.113Z,91677.36
2019-05-15T19:55:28.780Z,91686.06
2019-05-15T19:57:58.758Z,91686.86
2019-05-15T20:00:28.774Z,91686.56
2019-05-15T20:02:58.768Z,91685.23
2019-05-15T20:05:29.359Z,91678.67
2019-05-15T20:07:59.079Z,91674.72
2019-05-15T20:10:29.331Z,91674.14
2019-05-15T20:12:59.699Z,91673.02
2019-05-15T20:15:29.302Z,91669.27
2019-05-15T20:17:58.553Z,91668.13
2019-05-15T20:20:28.615Z,91666.58
2019-05-15T20:22:59.934Z,91659.48
2019-05-15T20:25:29.212Z,91655.06
2019-05-15T20:27:58.460Z,91656.53
2019-05-15T20:30:28.598Z,91659.61
2019-05-15T20:32:58.533Z,91654.02
2019-05-15T20:35:28.456Z,91649.73
2019-05-15T20:37:58.807Z,91652.75
2019-05-15T20:40:28.054Z,91654.04
2019-05-15T20:42:59.166Z,91648.78
2019-05-15T20:45:29.223Z,91649.55
2019-05-15T20:47:59.231Z,91650.17
2019-05-15T20:50:28.608Z,91641.27
2019-05-15T20:52:58.791Z,91646.98
2019-05-15T20:55:28.645Z,91634.70
2019-05-15T20:57:58.588Z,91629.32
2019-05-15T21:00:28.334Z,91631.73
2019-05-15T21:02:57.937Z,91627.49
2019-05-15T21:05:27.838Z,91625.04
2019-05-15T21:07:57.663Z,91627.12
2019-05-15T21:10:27.150Z,91633.09
2019-05-15T21:12:59.155Z,91642.56
2019-05-15T21:15:28.177Z,91648.53
2019-05-15T21:18:07.435Z,91651.94
2019-05-15T21:20:28.788Z,91657.70
2019-05-15T21:23:01.103Z,91648.23
2019-05-15T21:25:29.304Z,91652.84
2019-05-15T21:27:58.965Z,91654.89
2019-05-15T21:30:29.528Z,91649.42
2019-05-15T21:32:59.233Z,91647.37
2019-05-15T21:35:30.583Z,91639.22
2019-05-15T21:37:59.430Z,91646.82
2019-05-15T21:40:28.982Z,91644.65
2019-05-15T21:42:58.257Z,91642.19
2019-05-15T21:45:28.979Z,91640.81
2019-05-15T21:47:58.787Z,91639.16
2019-05-15T21:50:29.228Z,91640.58
2019-05-15T21:52:58.516Z,91640.92
2019-05-15T21:55:28.978Z,91635.34
2019-05-15T21:58:00.003Z,91636.28
2019-05-15T22:00:34.806Z,91633.56
2019-05-15T22:03:04.253Z,91632.15
2019-05-15T22:05:33.510Z,91635.72
2019-05-15T22:08:05.217Z,91631.37
2019-05-15T22:10:34.528Z,91634.58
2019-05-15T22:13:04.264Z,91635.92
2019-05-15T22:15:34.539Z,91634.08
2019-05-15T22:18:03.891Z,91625.66
2019-05-15T22:20:33.238Z,91618.47
2019-05-15T22:23:02.681Z,91617.13
2019-05-15T22:25:31.933Z,91609.70
2019-05-15T22:28:01.779Z,91603.44
2019-05-15T22:30:31.065Z,91600.80
2019-05-15T22:33:00.317Z,91598.88
2019-05-15T22:35:29.783Z,91597.27
2019-05-15T22:37:59.259Z,91598.75
2019-05-15T22:40:29.132Z,91600.73
2019-05-15T22:42:59.173Z,91595.23
2019-05-15T22:45:29.460Z,91608.38
2019-05-15T22:47:58.825Z,91593.45
2019-05-15T22:50:28.354Z,91593.63
2019-05-15T22:52:58.749Z,91595.14
2019-05-15T22:55:29.040Z,91593.45
2019-05-15T22:57:59.901Z,91593.42
2019-05-15T23:00:29.516Z,91591.41
2019-05-15T23:02:58.785Z,91582.91
2019-05-15T23:05:31.611Z,91582.92
2019-05-15T23:07:59.208Z,91574.20
2019-05-15T23:10:31.134Z,91574.66
2019-05-15T23:13:00.367Z,91566.39
2019-05-15T23:15:30.232Z,91568.70
2019-05-15T23:17:59.477Z,91566.97
2019-05-15T23:20:28.776Z,91574.66
2019-05-15T23:22:58.606Z,91565.69
2019-05-15T23:25:29.009Z,91574.84
2019-05-15T23:27:58.584Z,91573.12
2019-05-15T23:30:28.860Z,91568.63
2019-05-15T23:32:58.576Z,91569.14
2019-05-15T23:35:35.645Z,91563.25
2019-05-15T23:37:58.741Z,91568.25
2019-05-15T23:40:28.785Z,91568.12
2019-05-15T23:42:58.840Z,91568.50
2019-05-15T23:45:28.928Z,91563.45
2019-05-15T23:47:58.378Z,91561.14
2019-05-15T23:50:28.870Z,91558.77
2019-05-15T23:52:58.592Z,91563.13
2019-05-15T23:55:28.450Z,91565.17
2019-05-15T23:57:58.582Z,91566.52
